Time;durP1;ratioP1;P1;durP2;ratioP2;P2;SDS_P1;SDS_P2;PMS_P1;PMS_P2;Temp;Humidity;BMP_temperature;BMP_pressure;BME280_temperature;BME280_humidity;BME280_pressure;Samples;Min_cycle;Max_cycle;Signal;HPM_P1;HPM_P2
2022/12/18 00:01:53;;;;;;;70.38;35.00;;;5.40;81.90;;;;;;5035992;28;20029;-71
2022/12/18 00:04:22;;;;;;;61.25;33.78;;;5.30;82.00;;;;;;5035389;28;20414;-71
2022/12/18 00:06:48;;;;;;;59.85;31.85;;;5.30;81.90;;;;;;5035889;28;20068;-72
2022/12/18 00:09:14;;;;;;;58.35;32.13;;;5.30;81.80;;;;;;5035397;28;20414;-71
2022/12/18 00:11:40;;;;;;;54.30;30.50;;;5.40;81.40;;;;;;5035946;28;20029;-71
2022/12/18 00:14:05;;;;;;;52.88;30.42;;;5.40;81.40;;;;;;5035266;28;20048;-71
2022/12/18 00:16:32;;;;;;;47.70;28.15;;;5.40;81.70;;;;;;5035484;28;20425;-70
2022/12/18 00:19:00;;;;;;;45.22;27.65;;;5.40;81.50;;;;;;5035161;28;20025;-70
2022/12/18 00:21:26;;;;;;;45.20;29.17;;;5.40;81.50;;;;;;5035581;28;20026;-70
2022/12/18 00:23:52;;;;;;;50.58;28.77;;;5.30;81.60;;;;;;5035323;28;20071;-70
2022/12/18 00:26:21;;;;;;;44.47;27.48;;;5.40;81.30;;;;;;5035398;28;20026;-71
2022/12/18 00:28:47;;;;;;;43.00;26.63;;;5.50;81.10;;;;;;5034238;28;20022;-70
2022/12/18 00:31:15;;;;;;;47.47;27.92;;;5.50;80.50;;;;;;5035337;28;20030;-70
2022/12/18 00:33:41;;;;;;;47.75;28.92;;;5.60;79.90;;;;;;5035068;28;20018;-70
2022/12/18 00:36:10;;;;;;;49.00;29.02;;;5.50;79.40;;;;;;5035165;28;20025;-71
2022/12/18 00:38:37;;;;;;;45.42;27.38;;;5.50;79.40;;;;;;5035155;28;20052;-70
2022/12/18 00:41:03;;;;;;;43.95;27.70;;;5.40;79.80;;;;;;5035321;28;20025;-70
2022/12/18 00:43:29;;;;;;;46.63;28.80;;;5.40;80.10;;;;;;5035155;28;20048;-69
2022/12/18 00:45:54;;;;;;;48.58;29.05;;;5.30;79.80;;;;;;5034998;28;20034;-69
2022/12/18 00:48:21;;;;;;;49.25;29.77;;;5.30;79.90;;;;;;5034717;28;20022;-70
2022/12/18 00:50:48;;;;;;;46.63;29.02;;;5.30;79.90;;;;;;5035000;28;20075;-70
2022/12/18 00:53:14;;;;;;;43.20;27.33;;;5.20;79.80;;;;;;5033723;28;20067;-70
2022/12/18 00:55:41;;;;;;;48.63;28.83;;;5.20;80.10;;;;;;5034758;28;20537;-70
2022/12/18 00:58:07;;;;;;;45.33;27.15;;;5.30;80.50;;;;;;5035032;28;20017;-70
2022/12/18 01:00:33;;;;;;;44.63;28.25;;;5.20;80.30;;;;;;5034746;28;20128;-70
2022/12/18 01:02:58;;;;;;;45.45;27.80;;;5.20;80.40;;;;;;5034544;28;20489;-70
2022/12/18 01:05:24;;;;;;;46.08;28.92;;;5.30;80.20;;;;;;5034500;28;20036;-69
2022/12/18 01:07:50;;;;;;;46.13;27.95;;;5.20;80.80;;;;;;5034699;28;20470;-70
2022/12/18 01:10:15;;;;;;;44.60;28.95;;;5.20;79.70;;;;;;5034400;28;20047;-70
2022/12/18 01:12:41;;;;;;;48.08;29.33;;;5.20;79.70;;;;;;5034365;28;20073;-70
2022/12/18 01:15:07;;;;;;;54.00;31.50;;;5.20;79.50;;;;;;5034420;28;20061;-70
2022/12/18 01:17:33;;;;;;;46.78;28.80;;;5.10;79.30;;;;;;5034266;28;20052;-70
2022/12/18 01:19:59;;;;;;;51.80;31.70;;;5.10;79.40;;;;;;5034501;28;20028;-70
2022/12/18 01:22:24;;;;;;;50.95;31.00;;;5.10;79.00;;;;;;5034341;28;20104;-70
2022/12/18 01:24:50;;;;;;;52.05;30.88;;;5.10;79.40;;;;;;5034377;28;20033;-70
2022/12/18 01:27:15;;;;;;;51.42;30.52;;;5.00;79.50;;;;;;5034138;28;20017;-70
2022/12/18 01:29:41;;;;;;;52.22;32.35;;;5.00;79.10;;;;;;5034321;28;20048;-70
2022/12/18 01:32:07;;;;;;;52.88;31.58;;;5.00;79.30;;;;;;5033281;28;20386;-71
2022/12/18 01:34:32;;;;;;;52.78;31.23;;;5.00;79.20;;;;;;5034128;28;20025;-69
2022/12/18 01:36:58;;;;;;;51.28;30.90;;;4.90;79.40;;;;;;5034189;28;20026;-71
2022/12/18 01:39:23;;;;;;;48.88;30.50;;;4.90;79.20;;;;;;5033799;28;20033;-71
2022/12/18 01:42:01;;;;;;;54.95;30.27;;;4.90;79.20;;;;;;5034066;28;20099;-71
2022/12/18 01:44:57;;;;;;;52.95;30.70;;;4.90;78.80;;;;;;5033919;28;20193;-70
2022/12/18 01:47:42;;;;;;;52.03;30.40;;;4.80;79.50;;;;;;5033681;28;20036;-70
2022/12/18 01:50:15;;;;;;;47.28;29.17;;;4.80;79.50;;;;;;5034062;28;20114;-70
2022/12/18 01:52:43;;;;;;;43.00;28.92;;;4.80;79.90;;;;;;5033641;28;20108;-71
2022/12/18 01:55:13;;;;;;;49.40;30.45;;;4.90;79.80;;;;;;5033915;28;20547;-70
2022/12/18 01:57:40;;;;;;;42.45;27.73;;;4.90;79.60;;;;;;5032506;28;20474;-70
2022/12/18 02:00:13;;;;;;;44.13;27.95;;;4.90;79.60;;;;;;5033562;28;20458;-70
2022/12/18 02:02:40;;;;;;;46.45;28.85;;;4.90;79.30;;;;;;5034104;28;20067;-70
2022/12/18 02:05:06;;;;;;;49.38;30.70;;;4.90;79.10;;;;;;5033680;28;20106;-71
2022/12/18 02:07:56;;;;;;;47.55;29.13;;;4.90;79.10;;;;;;5032203;28;20025;-70
2022/12/18 02:10:22;;;;;;;48.35;29.75;;;4.80;78.90;;;;;;5033274;28;20033;-70
2022/12/18 02:13:08;;;;;;;49.95;30.52;;;4.80;78.50;;;;;;5031847;28;20379;-71
2022/12/18 02:15:53;;;;;;;50.58;29.90;;;4.80;78.60;;;;;;5033261;28;20143;-70
2022/12/18 02:18:23;;;;;;;49.63;30.08;;;4.80;78.50;;;;;;5033293;28;20021;-70
2022/12/18 02:20:59;;;;;;;48.20;29.83;;;4.70;78.20;;;;;;5033231;28;20497;-71
2022/12/18 02:23:46;;;;;;;52.08;30.13;;;4.60;78.60;;;;;;5033096;28;20111;-70
2022/12/18 02:26:23;;;;;;;48.47;30.67;;;4.60;78.60;;;;;;5033315;28;20060;-70
2022/12/18 02:28:54;;;;;;;58.50;31.05;;;4.50;78.60;;;;;;5032802;28;20021;-70
2022/12/18 02:31:25;;;;;;;52.42;32.35;;;4.50;78.50;;;;;;5033194;28;20028;-70
2022/12/18 02:33:54;;;;;;;52.50;30.38;;;4.50;78.40;;;;;;5033156;28;20033;-70
2022/12/18 02:36:21;;;;;;;53.10;31.02;;;4.50;78.40;;;;;;5033294;28;20025;-70
2022/12/18 02:38:47;;;;;;;47.97;29.95;;;4.50;78.40;;;;;;5032753;28;20083;-71
2022/12/18 02:41:15;;;;;;;53.38;31.30;;;4.50;78.60;;;;;;5033057;28;20034;-70
2022/12/18 02:43:46;;;;;;;49.63;31.17;;;4.40;78.80;;;;;;5031636;28;20034;-70
2022/12/18 02:46:31;;;;;;;53.67;31.63;;;4.40;78.60;;;;;;5032991;28;20061;-70
2022/12/18 02:49:26;;;;;;;50.72;30.42;;;4.40;78.60;;;;;;5032939;28;20028;-70
2022/12/18 02:52:17;;;;;;;53.40;31.55;;;4.40;78.60;;;;;;4998834;28;20495;-69
2022/12/18 02:55:20;;;;;;;53.83;31.15;;;4.40;78.10;;;;;;5032970;28;20021;-71
2022/12/18 02:58:04;;;;;;;51.03;31.10;;;4.40;78.20;;;;;;5032596;28;20065;-69
2022/12/18 03:00:43;;;;;;;53.60;30.35;;;4.30;78.20;;;;;;5032857;28;20514;-69
2022/12/18 03:03:24;;;;;;;49.92;31.40;;;4.30;78.00;;;;;;5031534;28;20025;-69
2022/12/18 03:06:05;;;;;;;48.45;29.08;;;4.30;77.80;;;;;;5032669;28;20487;-70
2022/12/18 03:08:36;;;;;;;51.40;30.17;;;4.30;77.80;;;;;;5032462;28;20052;-70
2022/12/18 03:11:09;;;;;;;51.33;32.05;;;4.30;77.80;;;;;;5033077;28;20473;-69
2022/12/18 03:13:47;;;;;;;49.38;30.33;;;4.20;77.80;;;;;;5032312;28;20030;-69
2022/12/18 03:16:18;;;;;;;46.35;29.95;;;4.20;77.80;;;;;;5032491;28;20053;-71
2022/12/18 03:18:52;;;;;;;45.00;27.20;;;4.20;77.60;;;;;;5032618;28;20014;-70
2022/12/18 03:21:22;;;;;;;45.40;27.33;;;4.20;77.40;;;;;;5032757;28;20144;-69
2022/12/18 03:23:51;;;;;;;50.35;28.80;;;4.30;77.20;;;;;;5032427;28;20037;-70
2022/12/18 03:26:23;;;;;;;44.55;27.95;;;4.20;77.30;;;;;;5032348;28;20116;-70
2022/12/18 03:28:51;;;;;;;;;;;4.20;77.60;;;;;;5032887;28;20049;-69
2022/12/18 03:31:19;;;;;;;41.95;24.98;;;4.40;78.00;;;;;;5032756;28;20003;-70
2022/12/18 03:33:54;;;;;;;45.28;26.88;;;4.30;77.80;;;;;;5032470;28;20029;-69
2022/12/18 03:36:19;;;;;;;41.90;25.80;;;4.20;78.20;;;;;;5032649;28;20030;-70
2022/12/18 03:38:45;;;;;;;41.38;25.20;;;4.30;78.30;;;;;;5032708;28;20021;-69
2022/12/18 03:41:43;;;;;;;38.15;24.27;;;4.20;78.10;;;;;;5032034;28;20025;-69
2022/12/18 03:44:29;;;;;;;41.88;25.00;;;4.20;77.80;;;;;;5032403;28;20390;-69
2022/12/18 03:46:58;;;;;;;40.45;25.67;;;4.30;77.80;;;;;;5032522;28;20060;-69
2022/12/18 03:50:00;;;;;;;40.45;24.83;;;4.30;77.50;;;;;;5032304;28;20022;-69
2022/12/18 03:52:44;;;;;;;41.88;26.20;;;4.20;77.50;;;;;;5032342;28;20025;-69
2022/12/18 03:55:11;;;;;;;40.15;25.27;;;4.30;77.10;;;;;;5034306;28;20032;-69
2022/12/18 03:57:37;;;;;;;41.53;25.65;;;4.20;77.10;;;;;;5035875;28;20108;-68
2022/12/18 04:00:11;;;;;;;37.28;24.20;;;4.20;77.30;;;;;;5035902;28;20017;-68
2022/12/18 04:02:39;;;;;;;40.53;26.13;;;4.20;77.30;;;;;;5035792;28;20030;-69
2022/12/18 04:05:07;;;;;;;42.53;25.02;;;4.20;77.10;;;;;;5035860;28;20055;-68
2022/12/18 04:07:33;;;;;;;39.33;23.40;;;4.20;77.20;;;;;;5035927;28;20025;-69
2022/12/18 04:10:01;;;;;;;37.47;23.30;;;4.20;77.70;;;;;;5034069;28;20021;-69
2022/12/18 04:12:29;;;;;;;38.53;23.95;;;4.10;78.00;;;;;;5034348;28;20079;-68
2022/12/18 04:14:55;;;;;;;37.78;24.17;;;4.20;77.70;;;;;;5034288;28;20040;-68
2022/12/18 04:17:20;;;;;;;37.30;22.15;;;4.20;77.80;;;;;;5035742;28;20030;-68
2022/12/18 04:19:46;;;;;;;34.33;23.02;;;4.10;78.20;;;;;;5035550;28;20469;-69
2022/12/18 04:22:12;;;;;;;35.33;22.30;;;4.10;78.20;;;;;;5035552;28;20041;-68
2022/12/18 04:24:37;;;;;;;35.42;22.33;;;4.10;78.20;;;;;;5034589;28;20033;-68
2022/12/18 04:27:03;;;;;;;31.75;21.30;;;4.20;78.30;;;;;;5032643;28;20367;-69
2022/12/18 04:29:29;;;;;;;32.15;21.45;;;4.10;78.10;;;;;;5031946;28;20112;-69
2022/12/18 04:31:55;;;;;;;32.45;21.13;;;4.10;78.20;;;;;;5034450;28;20105;-68
2022/12/18 04:34:21;;;;;;;33.22;21.33;;;4.20;78.30;;;;;;5024522;28;20030;-68
2022/12/18 04:36:46;;;;;;;31.65;21.30;;;4.30;78.30;;;;;;5015806;28;20030;-68
2022/12/18 04:39:12;;;;;;;33.90;21.33;;;4.30;78.10;;;;;;5013271;28;20555;-69
2022/12/18 04:41:38;;;;;;;35.08;21.67;;;4.30;78.00;;;;;;5015572;28;20483;-68
2022/12/18 04:44:03;;;;;;;34.72;21.27;;;4.20;78.10;;;;;;5014453;28;20048;-69
2022/12/18 04:46:29;;;;;;;38.17;22.33;;;4.30;78.00;;;;;;5014051;28;20065;-69
2022/12/18 04:48:55;;;;;;;33.65;23.02;;;4.20;77.70;;;;;;5015419;28;20356;-68
2022/12/18 04:51:20;;;;;;;34.30;22.75;;;4.20;77.90;;;;;;5015155;28;20471;-69
2022/12/18 04:53:46;;;;;;;36.42;22.55;;;4.10;78.10;;;;;;5015079;28;20073;-69
2022/12/18 04:56:14;;;;;;;35.90;21.90;;;4.20;77.80;;;;;;5014818;28;20064;-69
2022/12/18 04:58:42;;;;;;;34.42;21.23;;;4.20;77.90;;;;;;5015127;28;20022;-69
2022/12/18 05:01:08;;;;;;;36.78;22.20;;;4.20;78.00;;;;;;5015100;28;20033;-69
2022/12/18 05:03:35;;;;;;;33.33;21.23;;;4.20;77.70;;;;;;5015166;28;20030;-68
2022/12/18 05:06:00;;;;;;;33.55;19.27;;;4.10;78.30;;;;;;5013641;28;20041;-68
2022/12/18 05:08:26;;;;;;;31.98;20.83;;;4.10;77.80;;;;;;5015213;28;20418;-69
2022/12/18 05:11:07;;;;;;;31.55;19.25;;;4.10;77.80;;;;;;5014580;28;20105;-68
2022/12/18 05:13:34;;;;;;;34.67;19.80;;;4.10;77.60;;;;;;5014913;28;20037;-68
2022/12/18 05:16:00;;;;;;;33.65;20.38;;;4.10;77.70;;;;;;5014911;28;20033;-68
2022/12/18 05:18:27;;;;;;;31.42;19.42;;;4.10;77.60;;;;;;5014954;28;20052;-68
2022/12/18 05:20:53;;;;;;;28.60;18.60;;;4.10;77.30;;;;;;5014750;28;20025;-69
2022/12/18 05:23:20;;;;;;;30.05;19.15;;;4.10;77.20;;;;;;5014369;28;20423;-69
2022/12/18 05:25:58;;;;;;;33.42;18.95;;;4.10;76.50;;;;;;5013022;28;20037;-68
2022/12/18 05:28:25;;;;;;;24.38;17.10;;;4.10;76.30;;;;;;5014623;28;20105;-69
2022/12/18 05:30:52;;;;;;;27.77;17.65;;;4.10;76.80;;;;;;5013253;28;20048;-69
2022/12/18 05:33:19;;;;;;;27.40;16.88;;;4.10;76.40;;;;;;5014560;28;20041;-68
2022/12/18 05:35:49;;;;;;;27.35;18.10;;;4.00;76.60;;;;;;5013395;28;20072;-69
2022/12/18 05:38:15;;;;;;;29.25;17.63;;;4.10;76.70;;;;;;5014050;28;20029;-68
2022/12/18 05:40:42;;;;;;;26.75;17.17;;;4.00;76.80;;;;;;5014363;28;20049;-68
2022/12/18 05:43:08;;;;;;;26.52;16.80;;;4.00;76.90;;;;;;5014353;28;20069;-69
2022/12/18 05:45:37;;;;;;;23.67;15.00;;;4.00;77.10;;;;;;5025623;28;20057;-68
2022/12/18 05:48:03;;;;;;;20.70;14.48;;;4.00;77.20;;;;;;5033977;28;20466;-68
2022/12/18 05:50:28;;;;;;;24.25;14.80;;;4.00;77.20;;;;;;5034026;28;20033;-69
2022/12/18 05:52:54;;;;;;;27.95;16.23;;;4.10;76.90;;;;;;5033447;28;20029;-69
2022/12/18 05:55:19;;;;;;;24.52;14.77;;;4.10;77.20;;;;;;5033909;28;20104;-69
2022/12/18 05:57:45;;;;;;;26.33;15.88;;;4.10;76.90;;;;;;5033677;28;20025;-69
2022/12/18 06:00:11;;;;;;;25.77;16.33;;;4.10;76.70;;;;;;5033121;28;20155;-69
2022/12/18 06:02:37;;;;;;;26.58;16.80;;;4.10;76.50;;;;;;5021822;28;20029;-69
2022/12/18 06:05:02;;;;;;;25.60;16.50;;;4.10;76.70;;;;;;5033432;28;20037;-69
2022/12/18 06:07:28;;;;;;;27.63;17.67;;;4.10;76.70;;;;;;5032065;28;20032;-69
2022/12/18 06:09:53;;;;;;;25.48;17.35;;;4.00;76.60;;;;;;5033099;28;20104;-69
2022/12/18 06:12:19;;;;;;;26.58;17.52;;;4.00;76.80;;;;;;5032855;28;20029;-69
2022/12/18 06:14:44;;;;;;;27.67;17.98;;;4.00;77.20;;;;;;5033409;28;20060;-68
2022/12/18 06:17:10;;;;;;;29.13;18.35;;;4.00;77.00;;;;;;5033264;28;20360;-68
2022/12/18 06:19:35;;;;;;;26.40;18.80;;;4.00;77.10;;;;;;5033314;28;20025;-69
2022/12/18 06:22:01;;;;;;;27.08;18.75;;;4.00;77.30;;;;;;5033002;28;20490;-68
2022/12/18 06:24:27;;;;;;;24.30;16.92;;;4.00;77.20;;;;;;5033345;28;20061;-69
2022/12/18 06:26:52;;;;;;;25.65;16.65;;;4.00;77.40;;;;;;5032969;28;20026;-69
2022/12/18 06:29:18;;;;;;;27.55;17.45;;;4.10;77.10;;;;;;5033238;28;20105;-69
2022/12/18 06:31:43;;;;;;;29.15;19.05;;;4.10;77.20;;;;;;5033289;28;20033;-69
2022/12/18 06:34:09;;;;;;;27.92;18.10;;;4.00;77.10;;;;;;5033060;28;20021;-69
2022/12/18 06:36:34;;;;;;;28.98;18.48;;;4.00;77.10;;;;;;5033045;28;20029;-68
2022/12/18 06:39:00;;;;;;;29.75;18.60;;;4.00;77.60;;;;;;5032927;28;20017;-68
2022/12/18 06:41:25;;;;;;;28.60;18.55;;;4.00;76.80;;;;;;5033255;28;20040;-68
2022/12/18 06:43:51;;;;;;;28.35;19.08;;;3.90;76.70;;;;;;5032804;28;20034;-68
2022/12/18 06:46:16;;;;;;;28.35;18.80;;;4.00;76.70;;;;;;5031757;28;20029;-68
2022/12/18 06:48:42;;;;;;;27.90;17.10;;;3.90;76.70;;;;;;5022030;28;20463;-69
2022/12/18 06:51:08;;;;;;;30.42;18.05;;;4.00;76.70;;;;;;5027460;28;20029;-69
2022/12/18 06:53:33;;;;;;;28.25;18.50;;;3.90;77.30;;;;;;5025767;28;20013;-69
2022/12/18 06:56:04;;;;;;;24.58;16.58;;;3.90;76.00;;;;;;5026397;28;20479;-69
2022/12/18 06:58:29;;;;;;;29.02;17.42;;;3.80;75.70;;;;;;5023587;28;20060;-69
2022/12/18 07:01:01;;;;;;;27.15;16.58;;;3.70;76.30;;;;;;5027347;28;20467;-69
2022/12/18 07:03:26;;;;;;;29.00;17.30;;;3.50;76.70;;;;;;5020370;28;20021;-68
2022/12/18 07:05:52;;;;;;;26.88;16.30;;;3.30;77.20;;;;;;5025930;28;20038;-69
2022/12/18 07:08:17;;;;;;;29.08;16.70;;;3.30;77.20;;;;;;5030794;28;20040;-69
2022/12/18 07:10:43;;;;;;;24.00;15.35;;;3.20;77.20;;;;;;5023855;28;20036;-68
2022/12/18 07:13:09;;;;;;;28.45;16.45;;;3.20;77.40;;;;;;5023358;28;20367;-69
2022/12/18 07:15:35;;;;;;;23.88;14.98;;;3.10;77.50;;;;;;5028303;28;20078;-70
2022/12/18 07:18:00;;;;;;;23.20;14.85;;;3.10;77.40;;;;;;5024258;28;20113;-70
2022/12/18 07:20:26;;;;;;;24.50;15.48;;;3.20;77.40;;;;;;5032719;28;20083;-70
2022/12/18 07:22:51;;;;;;;22.42;14.52;;;3.30;77.10;;;;;;5032433;28;20029;-70
2022/12/18 07:25:17;;;;;;;24.77;14.10;;;3.30;77.50;;;;;;5027046;28;20083;-72
2022/12/18 07:27:43;;;;;;;24.00;15.48;;;3.40;76.80;;;;;;5021759;28;20033;-71
2022/12/18 07:30:09;;;;;;;26.13;16.15;;;3.40;76.90;;;;;;5030425;28;20104;-71
2022/12/18 07:32:35;;;;;;;23.25;14.60;;;3.30;77.20;;;;;;5032665;28;20033;-70
2022/12/18 07:35:00;;;;;;;25.45;14.77;;;3.30;77.00;;;;;;5032691;28;20434;-71
2022/12/18 07:37:26;;;;;;;21.20;14.38;;;2.70;78.20;;;;;;5033590;28;20478;-71
2022/12/18 07:39:51;;;;;;;26.58;15.95;;;3.00;78.50;;;;;;5036196;28;20112;-71
2022/12/18 07:42:32;;;;;;;26.40;15.48;;;3.20;77.60;;;;;;5036211;28;20029;-71
2022/12/18 07:45:02;;;;;;;23.17;15.20;;;3.30;77.30;;;;;;5035974;28;20038;-71
2022/12/18 07:47:28;;;;;;;21.30;14.13;;;3.50;76.90;;;;;;5036006;28;20159;-71
2022/12/18 07:49:54;;;;;;;23.55;13.25;;;3.20;77.70;;;;;;5036301;28;20100;-72
2022/12/18 07:52:20;;;;;;;20.73;13.43;;;3.40;78.10;;;;;;5036001;28;20010;-72
2022/12/18 07:54:48;;;;;;;25.42;14.32;;;3.60;77.90;;;;;;5036301;28;20018;-72
2022/12/18 07:57:14;;;;;;;23.50;13.75;;;3.70;77.30;;;;;;5034822;28;20450;-72
2022/12/18 07:59:39;;;;;;;20.17;12.77;;;3.70;77.10;;;;;;5036066;28;20053;-72
2022/12/18 08:02:05;;;;;;;23.05;13.07;;;3.70;77.50;;;;;;5034708;28;20034;-72
2022/12/18 08:04:31;;;;;;;21.08;13.98;;;3.80;77.00;;;;;;5036069;28;20025;-72
2022/12/18 08:06:56;;;;;;;17.27;12.40;;;3.80;76.70;;;;;;5034462;28;20017;-72
2022/12/18 08:09:22;;;;;;;22.20;13.15;;;3.90;76.90;;;;;;5034711;28;20033;-72
2022/12/18 08:11:47;;;;;;;20.05;12.63;;;3.80;76.80;;;;;;5035393;28;20029;-72
2022/12/18 08:14:14;;;;;;;18.38;12.18;;;3.90;76.80;;;;;;5034921;28;20045;-73
2022/12/18 08:16:40;;;;;;;20.42;13.23;;;3.90;76.60;;;;;;5034952;28;20041;-72
2022/12/18 08:19:05;;;;;;;20.17;12.63;;;4.00;76.80;;;;;;5035278;28;20065;-72
2022/12/18 08:21:31;;;;;;;20.75;13.98;;;4.10;76.50;;;;;;5031893;28;20034;-73
2022/12/18 08:24:00;;;;;;;18.65;12.05;;;4.10;76.50;;;;;;5033321;28;20022;-72
2022/12/18 08:26:27;;;;;;;18.50;12.32;;;4.10;76.00;;;;;;5036382;28;20080;-71
2022/12/18 08:28:54;;;;;;;23.17;12.73;;;4.10;76.50;;;;;;5038430;28;20018;-71
2022/12/18 08:31:21;;;;;;;18.63;11.73;;;4.10;76.50;;;;;;5035029;28;20032;-71
2022/12/18 08:33:49;;;;;;;18.33;11.95;;;4.10;76.90;;;;;;5034421;28;20037;-71
2022/12/18 08:36:15;;;;;;;18.35;12.15;;;4.20;77.00;;;;;;5035338;28;20029;-71
2022/12/18 08:38:40;;;;;;;19.52;12.63;;;4.20;77.10;;;;;;5035357;28;20033;-71
2022/12/18 08:41:09;;;;;;;19.85;13.27;;;4.20;76.90;;;;;;5032596;28;20124;-72
2022/12/18 08:46:20;;;;;;;19.27;12.48;;;4.20;76.90;;;;;;5033053;28;20095;-71
2022/12/18 08:48:46;;;;;;;17.58;11.07;;;4.10;76.90;;;;;;5034577;28;20025;-71
2022/12/18 08:51:12;;;;;;;16.92;12.00;;;4.30;77.20;;;;;;5034800;28;20037;-72
2022/12/18 08:53:38;;;;;;;18.90;11.93;;;4.30;76.70;;;;;;5034978;28;20013;-72
2022/12/18 08:56:04;;;;;;;17.35;11.90;;;4.40;76.30;;;;;;5034959;28;20029;-71
2022/12/18 08:58:29;;;;;;;17.42;11.15;;;4.30;76.40;;;;;;5034987;28;20033;-71
2022/12/18 09:01:03;;;;;;;19.80;12.48;;;4.30;77.10;;;;;;5034702;28;20080;-76
2022/12/18 09:03:29;;;;;;;18.60;12.77;;;4.30;77.00;;;;;;5032598;28;20037;-73
2022/12/18 09:05:54;;;;;;;20.83;12.27;;;4.30;76.60;;;;;;5030639;28;20034;-71
2022/12/18 09:08:20;;;;;;;16.58;11.23;;;4.50;76.00;;;;;;5023763;28;20025;-73
2022/12/18 09:10:47;;;;;;;18.92;12.32;;;4.40;75.90;;;;;;5032167;28;20033;-72
2022/12/18 09:13:15;;;;;;;17.73;12.00;;;4.40;75.90;;;;;;5038341;28;20036;-72
2022/12/18 09:15:46;;;;;;;18.27;11.93;;;4.30;76.80;;;;;;5033408;28;20520;-73
2022/12/18 09:18:13;;;;;;;18.43;11.10;;;4.40;76.80;;;;;;5033070;28;20079;-73
2022/12/18 09:20:39;;;;;;;19.77;12.27;;;4.50;76.40;;;;;;5031906;28;20865;-73
2022/12/18 09:23:05;;;;;;;18.42;11.82;;;4.50;76.40;;;;;;5033238;28;20017;-72
2022/12/18 09:25:32;;;;;;;20.00;12.80;;;4.50;76.40;;;;;;5029544;28;20454;-72
2022/12/18 09:27:59;;;;;;;17.02;10.85;;;4.60;75.00;;;;;;5024520;28;20026;-74
2022/12/18 09:30:26;;;;;;;16.20;10.30;;;4.50;76.90;;;;;;5030456;28;20036;-74
2022/12/18 09:32:51;;;;;;;18.38;11.75;;;4.50;76.10;;;;;;5028231;28;20549;-75
2022/12/18 09:35:17;;;;;;;22.35;13.57;;;4.50;76.60;;;;;;5031538;28;20033;-74
2022/12/18 09:37:43;;;;;;;22.35;14.20;;;4.60;75.20;;;;;;5034092;28;20022;-75
2022/12/18 09:40:17;;;;;;;17.42;11.40;;;4.60;74.70;;;;;;5028863;28;20100;-77
2022/12/18 09:42:51;;;;;;;15.95;11.15;;;4.50;75.30;;;;;;5031944;28;20491;-74
2022/12/18 09:45:18;;;;;;;20.25;11.75;;;4.60;75.00;;;;;;5018001;28;20034;-74
2022/12/18 09:47:47;;;;;;;16.20;10.82;;;4.60;75.40;;;;;;5020036;28;20018;-76
2022/12/18 09:50:32;;;;;;;15.60;10.82;;;4.70;75.50;;;;;;5020899;28;20026;-77
2022/12/18 09:53:03;;;;;;;20.30;11.95;;;4.70;75.80;;;;;;5030104;28;20029;-76
2022/12/18 09:55:37;;;;;;;16.98;12.40;;;4.70;76.40;;;;;;5029153;28;20071;-72
2022/12/18 09:58:27;;;;;;;17.48;12.02;;;4.70;76.00;;;;;;5022336;28;20029;-72
2022/12/18 10:00:53;;;;;;;16.38;11.35;;;4.60;74.80;;;;;;5030258;28;20076;-76
2022/12/18 10:03:18;;;;;;;18.23;12.20;;;4.50;75.30;;;;;;5031128;28;20386;-75
2022/12/18 10:05:58;;;;;;;18.38;12.57;;;4.30;75.80;;;;;;5032971;28;20032;-71
2022/12/18 10:08:42;;;;;;;16.15;11.50;;;4.20;76.40;;;;;;5031790;28;20530;-73
2022/12/18 10:11:41;;;;;;;19.52;12.70;;;4.30;76.40;;;;;;5029657;28;20095;-71
2022/12/18 10:14:21;;;;;;;17.73;11.38;;;4.40;76.50;;;;;;5021882;28;20037;-72
2022/12/18 10:17:22;;;;;;;17.25;11.13;;;4.50;76.80;;;;;;5032492;28;20075;-71
2022/12/18 10:20:02;;;;;;;15.40;11.32;;;4.40;79.10;;;;;;5017741;28;20088;-76
2022/12/18 10:22:52;;;;;;;17.55;12.18;;;4.50;77.20;;;;;;5026066;28;20025;-76
2022/12/18 10:25:26;;;;;;;17.50;12.38;;;4.70;76.80;;;;;;5018551;28;20502;-74
2022/12/18 10:27:56;;;;;;;16.02;12.00;;;4.80;77.50;;;;;;5021412;28;20376;-74
2022/12/18 10:30:23;;;;;;;19.05;11.32;;;4.90;77.50;;;;;;5016088;28;20017;-74
2022/12/18 10:32:49;;;;;;;19.83;11.60;;;4.70;78.70;;;;;;5028816;28;20372;-75
2022/12/18 10:35:26;;;;;;;16.10;11.65;;;4.90;78.60;;;;;;5028304;28;20028;-73
2022/12/18 10:38:14;;;;;;;16.85;11.85;;;5.00;77.60;;;;;;5024443;28;20045;-73
2022/12/18 10:40:59;;;;;;;17.33;12.00;;;5.00;79.10;;;;;;5027825;28;20033;-74
2022/12/18 10:43:27;;;;;;;15.18;11.23;;;5.00;79.70;;;;;;5027161;28;20030;-77
2022/12/18 10:46:08;;;;;;;16.70;11.15;;;5.10;80.20;;;;;;5029231;28;20402;-74
2022/12/18 10:48:39;;;;;;;16.80;11.98;;;5.10;79.50;;;;;;5028429;28;20509;-75
2022/12/18 10:51:06;;;;;;;16.13;12.07;;;5.10;79.60;;;;;;5031422;28;20067;-74
2022/12/18 10:53:34;;;;;;;17.27;12.27;;;5.20;79.40;;;;;;5032245;28;20068;-76
2022/12/18 10:56:04;;;;;;;18.08;11.57;;;5.30;78.70;;;;;;5027867;28;20018;-75
2022/12/18 10:58:33;;;;;;;16.98;11.95;;;5.20;78.50;;;;;;5027809;28;20060;-76
2022/12/18 11:01:12;;;;;;;15.57;11.50;;;5.30;78.90;;;;;;5026195;28;20022;-75
2022/12/18 11:03:44;;;;;;;19.35;12.57;;;5.30;77.70;;;;;;5027980;28;20009;-77
2022/12/18 11:06:11;;;;;;;17.08;11.95;;;5.30;79.20;;;;;;5028065;28;20038;-76
2022/12/18 11:08:38;;;;;;;19.23;12.25;;;5.30;81.20;;;;;;5025794;28;20086;-75
2022/12/18 11:11:25;;;;;;;18.88;12.57;;;5.40;80.40;;;;;;5014906;28;20406;-76
2022/12/18 11:14:12;;;;;;;16.40;12.10;;;5.40;80.20;;;;;;5031223;28;20521;-74
2022/12/18 11:16:45;;;;;;;17.73;11.45;;;5.40;80.30;;;;;;5031247;28;20024;-75
2022/12/18 11:19:21;;;;;;;14.77;11.60;;;5.40;80.10;;;;;;5028032;28;20014;-74
2022/12/18 11:21:48;;;;;;;17.70;12.25;;;5.40;79.30;;;;;;5024147;28;20581;-76
2022/12/18 11:24:30;;;;;;;17.25;11.73;;;5.40;80.70;;;;;;5030962;28;20033;-76
2022/12/18 11:27:02;;;;;;;19.35;12.88;;;5.40;81.40;;;;;;5028860;28;20021;-79
2022/12/18 11:29:36;;;;;;;19.05;12.38;;;5.40;81.50;;;;;;5026046;28;20028;-78
2022/12/18 11:32:14;;;;;;;16.80;11.02;;;5.60;81.60;;;;;;5028582;28;20033;-75
2022/12/18 11:34:44;;;;;;;17.42;12.38;;;5.40;82.50;;;;;;5027090;28;20030;-74
2022/12/18 11:37:12;;;;;;;27.80;11.80;;;5.40;82.70;;;;;;5029300;28;20052;-80
2022/12/18 11:39:42;;;;;;;17.20;11.43;;;5.50;82.20;;;;;;5030182;28;20037;-75
2022/12/18 11:42:25;;;;;;;17.55;12.30;;;5.60;80.60;;;;;;5030502;28;20532;-74
2022/12/18 11:45:11;;;;;;;17.67;12.40;;;5.60;77.90;;;;;;5029646;28;20046;-74
2022/12/18 11:47:49;;;;;;;16.65;12.15;;;5.60;77.50;;;;;;5030769;28;20021;-77
2022/12/18 11:50:42;;;;;;;19.25;13.35;;;5.60;77.80;;;;;;5024567;28;20060;-76
2022/12/18 11:53:11;;;;;;;17.38;13.10;;;5.60;78.00;;;;;;5015784;28;20044;-72
2022/12/18 11:55:41;;;;;;;19.15;13.73;;;5.50;78.10;;;;;;5023701;28;20054;-74
2022/12/18 11:58:37;;;;;;;19.17;14.98;;;5.40;78.80;;;;;;5025170;28;20030;-76
2022/12/18 12:01:45;;;;;;;17.83;13.05;;;5.40;78.70;;;;;;5031055;28;20033;-77
2022/12/18 12:04:48;;;;;;;19.92;13.85;;;5.50;78.70;;;;;;5027219;28;20041;-77
2022/12/18 12:07:36;;;;;;;18.20;12.35;;;5.50;78.30;;;;;;5020662;28;20033;-74
2022/12/18 12:10:14;;;;;;;20.52;14.40;;;5.50;78.50;;;;;;5022747;28;20022;-76
2022/12/18 12:13:21;;;;;;;19.55;12.73;;;5.40;80.60;;;;;;5023486;28;20097;-78
2022/12/18 12:16:00;;;;;;;19.88;13.70;;;5.50;81.50;;;;;;5023790;28;20076;-77
2022/12/18 12:18:42;;;;;;;17.02;12.75;;;5.60;80.80;;;;;;5026810;28;20259;-76
2022/12/18 12:21:19;;;;;;;21.45;13.85;;;5.70;78.60;;;;;;5015160;28;20471;-77
2022/12/18 12:23:53;;;;;;;17.55;13.05;;;5.60;78.60;;;;;;5029659;28;20053;-78
2022/12/18 12:26:38;;;;;;;16.48;12.52;;;5.50;78.60;;;;;;5029345;28;20068;-77
2022/12/18 12:29:19;;;;;;;21.23;13.40;;;5.50;80.30;;;;;;5028826;28;20064;-76
2022/12/18 12:31:51;;;;;;;20.15;13.77;;;5.60;80.90;;;;;;5028683;28;20030;-78
2022/12/18 12:34:29;;;;;;;17.33;12.63;;;5.80;81.50;;;;;;5024149;28;20475;-77
2022/12/18 12:37:32;;;;;;;18.85;13.80;;;5.80;81.50;;;;;;5030865;28;20032;-75
2022/12/18 12:40:02;;;;;;;18.70;12.45;;;5.80;81.50;;;;;;5023983;28;20101;-73
2022/12/18 12:45:29;;;;;;;18.98;13.15;;;5.90;80.40;;;;;;5016800;28;20044;-74
2022/12/18 12:48:01;;;;;;;20.30;14.57;;;6.00;81.20;;;;;;5020417;28;20429;-75
2022/12/18 12:50:27;;;;;;;;;;;6.00;81.10;;;;;;5018904;28;20470;-74
2022/12/18 12:52:56;;;;;;;20.95;13.00;;;6.20;80.70;;;;;;5023654;28;19908;-73
2022/12/18 12:55:27;;;;;;;19.05;12.82;;;6.20;80.90;;;;;;5017011;28;20021;-73
2022/12/18 12:58:04;;;;;;;18.77;13.88;;;6.20;78.60;;;;;;5017907;28;20487;-75
2022/12/18 13:00:39;;;;;;;19.98;13.27;;;6.10;78.20;;;;;;5017126;28;20033;-75
2022/12/18 13:03:26;;;;;;;19.63;13.80;;;6.10;80.20;;;;;;5011729;28;20486;-75